sensor_id;sensor_type;location;lat;lon;timestamp;P1;durP1;ratioP1;P2;durP2;ratioP2
16393;SDS011;8306;51.128;4.476;2022-07-06T00:01:49;3.80;;;3.00;;
16393;SDS011;8306;51.128;4.476;2022-07-06T00:04:16;2.93;;;2.67;;
16393;SDS011;8306;51.128;4.476;2022-07-06T00:06:42;3.17;;;2.57;;
16393;SDS011;8306;51.128;4.476;2022-07-06T00:09:09;3.93;;;2.83;;
16393;SDS011;8306;51.128;4.476;2022-07-06T00:11:35;2.70;;;2.50;;
16393;SDS011;8306;51.128;4.476;2022-07-06T00:14:02;3.43;;;3.00;;
16393;SDS011;8306;51.128;4.476;2022-07-06T00:16:28;3.10;;;2.80;;
16393;SDS011;8306;51.128;4.476;2022-07-06T00:18:55;4.27;;;3.03;;
16393;SDS011;8306;51.128;4.476;2022-07-06T00:21:21;2.97;;;2.67;;
16393;SDS011;8306;51.128;4.476;2022-07-06T00:23:48;3.80;;;2.80;;
16393;SDS011;8306;51.128;4.476;2022-07-06T00:26:14;3.70;;;3.20;;
16393;SDS011;8306;51.128;4.476;2022-07-06T00:28:40;3.57;;;2.80;;
16393;SDS011;8306;51.128;4.476;2022-07-06T00:31:07;3.23;;;2.93;;
16393;SDS011;8306;51.128;4.476;2022-07-06T00:33:33;3.10;;;2.80;;
16393;SDS011;8306;51.128;4.476;2022-07-06T00:36:00;5.43;;;2.90;;
16393;SDS011;8306;51.128;4.476;2022-07-06T00:38:26;3.47;;;3.10;;
16393;SDS011;8306;51.128;4.476;2022-07-06T00:40:53;3.50;;;3.20;;
16393;SDS011;8306;51.128;4.476;2022-07-06T00:43:19;3.00;;;2.80;;
16393;SDS011;8306;51.128;4.476;2022-07-06T00:45:46;3.27;;;2.93;;
16393;SDS011;8306;51.128;4.476;2022-07-06T00:48:12;4.07;;;3.17;;
16393;SDS011;8306;51.128;4.476;2022-07-06T00:50:39;3.13;;;2.80;;
16393;SDS011;8306;51.128;4.476;2022-07-06T00:53:05;3.63;;;2.70;;
16393;SDS011;8306;51.128;4.476;2022-07-06T00:55:33;3.80;;;3.13;;
16393;SDS011;8306;51.128;4.476;2022-07-06T00:57:59;3.30;;;2.70;;
16393;SDS011;8306;51.128;4.476;2022-07-06T01:00:25;3.47;;;3.00;;
16393;SDS011;8306;51.128;4.476;2022-07-06T01:02:51;3.90;;;3.10;;
16393;SDS011;8306;51.128;4.476;2022-07-06T01:05:18;3.87;;;3.33;;
16393;SDS011;8306;51.128;4.476;2022-07-06T01:07:44;5.27;;;3.63;;
16393;SDS011;8306;51.128;4.476;2022-07-06T01:10:11;4.50;;;3.67;;
16393;SDS011;8306;51.128;4.476;2022-07-06T01:12:38;3.93;;;3.57;;
16393;SDS011;8306;51.128;4.476;2022-07-06T01:15:04;3.90;;;3.60;;
16393;SDS011;8306;51.128;4.476;2022-07-06T01:17:30;3.43;;;3.13;;
16393;SDS011;8306;51.128;4.476;2022-07-06T01:19:57;4.13;;;3.27;;
16393;SDS011;8306;51.128;4.476;2022-07-06T01:22:23;3.40;;;3.10;;
16393;SDS011;8306;51.128;4.476;2022-07-06T01:24:50;4.90;;;3.40;;
16393;SDS011;8306;51.128;4.476;2022-07-06T01:27:16;3.73;;;3.17;;
16393;SDS011;8306;51.128;4.476;2022-07-06T01:29:43;4.33;;;3.40;;
16393;SDS011;8306;51.128;4.476;2022-07-06T01:32:09;4.20;;;2.80;;
16393;SDS011;8306;51.128;4.476;2022-07-06T01:34:36;4.60;;;3.20;;
16393;SDS011;8306;51.128;4.476;2022-07-06T01:37:02;3.47;;;3.00;;
16393;SDS011;8306;51.128;4.476;2022-07-06T01:39:29;4.00;;;3.50;;
16393;SDS011;8306;51.128;4.476;2022-07-06T01:41:55;3.67;;;3.37;;
16393;SDS011;8306;51.128;4.476;2022-07-06T01:44:22;4.27;;;3.97;;
16393;SDS011;8306;51.128;4.476;2022-07-06T01:46:48;3.73;;;3.43;;
16393;SDS011;8306;51.128;4.476;2022-07-06T01:49:15;4.10;;;3.70;;
16393;SDS011;8306;51.128;4.476;2022-07-06T01:51:41;4.20;;;3.83;;
16393;SDS011;8306;51.128;4.476;2022-07-06T01:54:08;3.97;;;3.67;;
16393;SDS011;8306;51.128;4.476;2022-07-06T01:56:34;3.97;;;3.67;;
16393;SDS011;8306;51.128;4.476;2022-07-06T01:59:01;3.70;;;3.40;;
16393;SDS011;8306;51.128;4.476;2022-07-06T02:01:27;4.50;;;4.20;;
16393;SDS011;8306;51.128;4.476;2022-07-06T02:03:54;3.93;;;3.63;;
16393;SDS011;8306;51.128;4.476;2022-07-06T02:06:20;4.63;;;4.10;;
16393;SDS011;8306;51.128;4.476;2022-07-06T02:08:47;4.13;;;3.70;;
16393;SDS011;8306;51.128;4.476;2022-07-06T02:11:13;4.20;;;3.80;;
16393;SDS011;8306;51.128;4.476;2022-07-06T02:13:40;4.60;;;4.13;;
16393;SDS011;8306;51.128;4.476;2022-07-06T02:16:06;3.77;;;3.47;;
16393;SDS011;8306;51.128;4.476;2022-07-06T02:18:33;4.97;;;4.57;;
16393;SDS011;8306;51.128;4.476;2022-07-06T02:20:59;5.10;;;4.60;;
16393;SDS011;8306;51.128;4.476;2022-07-06T02:23:26;4.73;;;4.33;;
16393;SDS011;8306;51.128;4.476;2022-07-06T02:25:52;6.07;;;5.67;;
16393;SDS011;8306;51.128;4.476;2022-07-06T02:28:18;4.73;;;4.33;;
16393;SDS011;8306;51.128;4.476;2022-07-06T02:30:45;4.77;;;4.33;;
16393;SDS011;8306;51.128;4.476;2022-07-06T02:33:11;4.90;;;4.50;;
16393;SDS011;8306;51.128;4.476;2022-07-06T02:35:38;4.77;;;4.30;;
16393;SDS011;8306;51.128;4.476;2022-07-06T02:38:04;4.93;;;4.03;;
16393;SDS011;8306;51.128;4.476;2022-07-06T02:40:31;4.33;;;3.87;;
16393;SDS011;8306;51.128;4.476;2022-07-06T02:42:57;4.20;;;3.80;;
16393;SDS011;8306;51.128;4.476;2022-07-06T02:45:24;5.10;;;4.60;;
16393;SDS011;8306;51.128;4.476;2022-07-06T02:47:50;4.83;;;4.43;;
16393;SDS011;8306;51.128;4.476;2022-07-06T02:50:17;4.67;;;4.27;;
16393;SDS011;8306;51.128;4.476;2022-07-06T02:52:43;5.60;;;4.40;;
16393;SDS011;8306;51.128;4.476;2022-07-06T02:55:10;4.73;;;4.20;;
16393;SDS011;8306;51.128;4.476;2022-07-06T02:57:36;5.07;;;4.67;;
16393;SDS011;8306;51.128;4.476;2022-07-06T03:00:03;5.33;;;4.93;;
16393;SDS011;8306;51.128;4.476;2022-07-06T03:02:29;4.30;;;4.00;;
16393;SDS011;8306;51.128;4.476;2022-07-06T03:04:56;4.63;;;4.23;;
16393;SDS011;8306;51.128;4.476;2022-07-06T03:07:22;4.60;;;4.20;;
16393;SDS011;8306;51.128;4.476;2022-07-06T03:09:49;5.27;;;4.87;;
16393;SDS011;8306;51.128;4.476;2022-07-06T03:12:15;4.73;;;4.37;;
16393;SDS011;8306;51.128;4.476;2022-07-06T03:14:42;5.40;;;4.90;;
16393;SDS011;8306;51.128;4.476;2022-07-06T03:17:08;5.53;;;4.00;;
16393;SDS011;8306;51.128;4.476;2022-07-06T03:19:35;4.60;;;4.20;;
16393;SDS011;8306;51.128;4.476;2022-07-06T03:22:01;4.00;;;3.80;;
16393;SDS011;8306;51.128;4.476;2022-07-06T03:24:28;4.40;;;4.00;;
16393;SDS011;8306;51.128;4.476;2022-07-06T03:26:54;4.20;;;3.90;;
16393;SDS011;8306;51.128;4.476;2022-07-06T03:29:21;4.20;;;3.90;;
16393;SDS011;8306;51.128;4.476;2022-07-06T03:31:47;4.40;;;4.10;;
16393;SDS011;8306;51.128;4.476;2022-07-06T03:34:13;3.80;;;3.50;;
16393;SDS011;8306;51.128;4.476;2022-07-06T03:36:40;4.00;;;3.60;;
16393;SDS011;8306;51.128;4.476;2022-07-06T03:39:06;3.97;;;3.67;;
16393;SDS011;8306;51.128;4.476;2022-07-06T03:41:33;4.00;;;3.40;;
16393;SDS011;8306;51.128;4.476;2022-07-06T03:43:59;3.63;;;3.33;;
16393;SDS011;8306;51.128;4.476;2022-07-06T03:46:26;4.07;;;3.60;;
16393;SDS011;8306;51.128;4.476;2022-07-06T03:48:52;4.20;;;3.83;;
16393;SDS011;8306;51.128;4.476;2022-07-06T03:51:19;4.53;;;3.53;;
16393;SDS011;8306;51.128;4.476;2022-07-06T03:53:45;3.67;;;3.40;;
16393;SDS011;8306;51.128;4.476;2022-07-06T03:56:12;3.87;;;3.40;;
16393;SDS011;8306;51.128;4.476;2022-07-06T03:58:56;3.53;;;3.23;;
16393;SDS011;8306;51.128;4.476;2022-07-06T04:01:20;4.30;;;3.97;;
16393;SDS011;8306;51.128;4.476;2022-07-06T04:03:46;4.33;;;3.93;;
16393;SDS011;8306;51.128;4.476;2022-07-06T04:06:13;4.53;;;4.23;;
16393;SDS011;8306;51.128;4.476;2022-07-06T04:08:39;4.60;;;4.30;;
16393;SDS011;8306;51.128;4.476;2022-07-06T04:11:05;5.10;;;4.70;;
16393;SDS011;8306;51.128;4.476;2022-07-06T04:13:32;4.60;;;4.20;;
16393;SDS011;8306;51.128;4.476;2022-07-06T04:15:59;4.60;;;4.20;;
16393;SDS011;8306;51.128;4.476;2022-07-06T04:18:25;5.13;;;4.70;;
16393;SDS011;8306;51.128;4.476;2022-07-06T04:20:51;5.33;;;4.93;;
16393;SDS011;8306;51.128;4.476;2022-07-06T04:23:18;5.87;;;5.47;;
16393;SDS011;8306;51.128;4.476;2022-07-06T04:25:44;5.70;;;5.20;;
16393;SDS011;8306;51.128;4.476;2022-07-06T04:28:11;5.37;;;5.03;;
16393;SDS011;8306;51.128;4.476;2022-07-06T04:30:37;5.57;;;5.27;;
16393;SDS011;8306;51.128;4.476;2022-07-06T04:33:04;5.87;;;5.57;;
16393;SDS011;8306;51.128;4.476;2022-07-06T04:35:30;5.70;;;5.30;;
16393;SDS011;8306;51.128;4.476;2022-07-06T04:37:57;5.93;;;5.53;;
16393;SDS011;8306;51.128;4.476;2022-07-06T04:40:23;5.10;;;4.67;;
16393;SDS011;8306;51.128;4.476;2022-07-06T04:42:50;5.63;;;5.23;;
16393;SDS011;8306;51.128;4.476;2022-07-06T04:45:16;6.00;;;5.53;;
16393;SDS011;8306;51.128;4.476;2022-07-06T04:47:43;6.17;;;5.57;;
16393;SDS011;8306;51.128;4.476;2022-07-06T04:50:09;5.50;;;5.10;;
16393;SDS011;8306;51.128;4.476;2022-07-06T04:52:36;6.37;;;5.87;;
16393;SDS011;8306;51.128;4.476;2022-07-06T04:55:02;5.77;;;5.20;;
16393;SDS011;8306;51.128;4.476;2022-07-06T04:57:29;5.47;;;4.97;;
16393;SDS011;8306;51.128;4.476;2022-07-06T04:59:55;5.80;;;5.40;;
16393;SDS011;8306;51.128;4.476;2022-07-06T05:02:22;5.27;;;4.90;;
16393;SDS011;8306;51.128;4.476;2022-07-06T05:04:48;4.70;;;4.37;;
16393;SDS011;8306;51.128;4.476;2022-07-06T05:07:14;5.27;;;4.93;;
16393;SDS011;8306;51.128;4.476;2022-07-06T05:09:41;5.33;;;4.83;;
16393;SDS011;8306;51.128;4.476;2022-07-06T05:12:08;5.23;;;4.83;;
16393;SDS011;8306;51.128;4.476;2022-07-06T05:14:34;5.10;;;4.60;;
16393;SDS011;8306;51.128;4.476;2022-07-06T05:17:01;5.10;;;4.70;;
16393;SDS011;8306;51.128;4.476;2022-07-06T05:19:27;6.10;;;5.53;;
16393;SDS011;8306;51.128;4.476;2022-07-06T05:21:53;5.07;;;4.50;;
16393;SDS011;8306;51.128;4.476;2022-07-06T05:24:20;4.60;;;4.20;;
16393;SDS011;8306;51.128;4.476;2022-07-06T05:26:46;4.17;;;3.77;;
16393;SDS011;8306;51.128;4.476;2022-07-06T05:29:13;3.90;;;3.60;;
16393;SDS011;8306;51.128;4.476;2022-07-06T05:31:39;5.07;;;4.40;;
16393;SDS011;8306;51.128;4.476;2022-07-06T05:34:06;4.53;;;3.93;;
16393;SDS011;8306;51.128;4.476;2022-07-06T05:36:32;3.80;;;3.40;;
16393;SDS011;8306;51.128;4.476;2022-07-06T05:38:59;3.73;;;3.43;;
16393;SDS011;8306;51.128;4.476;2022-07-06T05:41:25;3.10;;;2.80;;
16393;SDS011;8306;51.128;4.476;2022-07-06T05:43:52;3.20;;;2.70;;
16393;SDS011;8306;51.128;4.476;2022-07-06T05:46:18;4.73;;;3.17;;
16393;SDS011;8306;51.128;4.476;2022-07-06T05:48:45;3.43;;;3.00;;
16393;SDS011;8306;51.128;4.476;2022-07-06T05:51:29;2.97;;;2.77;;
16393;SDS011;8306;51.128;4.476;2022-07-06T05:53:56;2.90;;;2.60;;
16393;SDS011;8306;51.128;4.476;2022-07-06T05:56:22;3.27;;;2.60;;
16393;SDS011;8306;51.128;4.476;2022-07-06T05:58:49;2.40;;;2.20;;
16393;SDS011;8306;51.128;4.476;2022-07-06T06:01:15;2.33;;;2.13;;
16393;SDS011;8306;51.128;4.476;2022-07-06T06:03:42;2.20;;;2.00;;
16393;SDS011;8306;51.128;4.476;2022-07-06T06:06:08;2.73;;;1.97;;
16393;SDS011;8306;51.128;4.476;2022-07-06T06:08:35;2.30;;;2.07;;
16393;SDS011;8306;51.128;4.476;2022-07-06T06:11:01;2.80;;;2.13;;
16393;SDS011;8306;51.128;4.476;2022-07-06T06:13:28;3.73;;;2.00;;
16393;SDS011;8306;51.128;4.476;2022-07-06T06:15:54;2.47;;;1.80;;
16393;SDS011;8306;51.128;4.476;2022-07-06T06:18:21;2.20;;;1.67;;
16393;SDS011;8306;51.128;4.476;2022-07-06T06:20:47;2.25;;;1.30;;
16393;SDS011;8306;51.128;4.476;2022-07-06T06:23:13;2.05;;;1.58;;
16393;SDS011;8306;51.128;4.476;2022-07-06T06:25:40;3.80;;;1.70;;
16393;SDS011;8306;51.128;4.476;2022-07-06T06:28:07;2.08;;;1.80;;
16393;SDS011;8306;51.128;4.476;2022-07-06T06:30:33;3.47;;;1.60;;
16393;SDS011;8306;51.128;4.476;2022-07-06T06:35:32;1.77;;;1.50;;
16393;SDS011;8306;51.128;4.476;2022-07-06T06:37:58;2.80;;;1.67;;
16393;SDS011;8306;51.128;4.476;2022-07-06T06:40:25;1.40;;;1.30;;
16393;SDS011;8306;51.128;4.476;2022-07-06T06:42:51;1.55;;;1.12;;
16393;SDS011;8306;51.128;4.476;2022-07-06T06:45:18;1.70;;;1.30;;
16393;SDS011;8306;51.128;4.476;2022-07-06T06:47:44;1.77;;;1.50;;
16393;SDS011;8306;51.128;4.476;2022-07-06T06:50:11;1.77;;;1.20;;
16393;SDS011;8306;51.128;4.476;2022-07-06T06:52:37;2.17;;;1.60;;
16393;SDS011;8306;51.128;4.476;2022-07-06T06:55:04;1.53;;;1.30;;
16393;SDS011;8306;51.128;4.476;2022-07-06T06:57:30;2.27;;;1.33;;
16393;SDS011;8306;51.128;4.476;2022-07-06T06:59:57;1.33;;;1.23;;
16393;SDS011;8306;51.128;4.476;2022-07-06T07:02:23;1.92;;;1.17;;
16393;SDS011;8306;51.128;4.476;2022-07-06T07:04:50;2.20;;;1.20;;
16393;SDS011;8306;51.128;4.476;2022-07-06T07:07:16;1.85;;;1.12;;
16393;SDS011;8306;51.128;4.476;2022-07-06T07:09:42;2.12;;;1.15;;
16393;SDS011;8306;51.128;4.476;2022-07-06T07:12:09;2.30;;;1.20;;
16393;SDS011;8306;51.128;4.476;2022-07-06T07:14:35;1.00;;;0.70;;
16393;SDS011;8306;51.128;4.476;2022-07-06T07:17:02;1.00;;;0.90;;
16393;SDS011;8306;51.128;4.476;2022-07-06T07:19:28;1.10;;;1.00;;
16393;SDS011;8306;51.128;4.476;2022-07-06T07:21:55;1.45;;;0.82;;
16393;SDS011;8306;51.128;4.476;2022-07-06T07:24:21;1.75;;;1.10;;
16393;SDS011;8306;51.128;4.476;2022-07-06T07:26:48;1.10;;;0.90;;
16393;SDS011;8306;51.128;4.476;2022-07-06T07:29:14;2.10;;;1.00;;
16393;SDS011;8306;51.128;4.476;2022-07-06T07:31:41;1.65;;;1.15;;
16393;SDS011;8306;51.128;4.476;2022-07-06T07:34:07;1.27;;;0.90;;
16393;SDS011;8306;51.128;4.476;2022-07-06T07:36:34;1.98;;;1.20;;
16393;SDS011;8306;51.128;4.476;2022-07-06T07:39:00;1.20;;;1.10;;
16393;SDS011;8306;51.128;4.476;2022-07-06T07:41:27;1.40;;;1.17;;
16393;SDS011;8306;51.128;4.476;2022-07-06T07:43:53;1.65;;;1.17;;
16393;SDS011;8306;51.128;4.476;2022-07-06T07:46:20;1.80;;;1.10;;
16393;SDS011;8306;51.128;4.476;2022-07-06T07:48:46;1.87;;;1.00;;
16393;SDS011;8306;51.128;4.476;2022-07-06T07:51:13;1.58;;;1.10;;
16393;SDS011;8306;51.128;4.476;2022-07-06T07:53:40;2.92;;;1.10;;
16393;SDS011;8306;51.128;4.476;2022-07-06T07:56:06;1.00;;;0.90;;
16393;SDS011;8306;51.128;4.476;2022-07-06T07:58:33;2.83;;;1.40;;
16393;SDS011;8306;51.128;4.476;2022-07-06T08:00:59;1.67;;;1.17;;
16393;SDS011;8306;51.128;4.476;2022-07-06T08:03:26;1.62;;;1.15;;
16393;SDS011;8306;51.128;4.476;2022-07-06T08:05:52;1.87;;;1.10;;
16393;SDS011;8306;51.128;4.476;2022-07-06T08:08:19;1.55;;;1.17;;
16393;SDS011;8306;51.128;4.476;2022-07-06T08:10:45;2.37;;;1.20;;
16393;SDS011;8306;51.128;4.476;2022-07-06T08:13:12;1.25;;;0.90;;
16393;SDS011;8306;51.128;4.476;2022-07-06T08:15:38;1.73;;;1.20;;
16393;SDS011;8306;51.128;4.476;2022-07-06T08:18:04;1.58;;;1.23;;
16393;SDS011;8306;51.128;4.476;2022-07-06T08:20:31;0.90;;;0.77;;
16393;SDS011;8306;51.128;4.476;2022-07-06T08:22:57;1.48;;;0.90;;
16393;SDS011;8306;51.128;4.476;2022-07-06T08:25:24;1.95;;;1.00;;
16393;SDS011;8306;51.128;4.476;2022-07-06T08:27:50;2.12;;;1.00;;
16393;SDS011;8306;51.128;4.476;2022-07-06T08:30:17;2.60;;;0.98;;
16393;SDS011;8306;51.128;4.476;2022-07-06T08:32:43;1.77;;;1.10;;
16393;SDS011;8306;51.128;4.476;2022-07-06T08:35:10;1.75;;;0.90;;
16393;SDS011;8306;51.128;4.476;2022-07-06T08:37:36;2.15;;;0.95;;
16393;SDS011;8306;51.128;4.476;2022-07-06T08:40:03;1.92;;;0.90;;
16393;SDS011;8306;51.128;4.476;2022-07-06T08:42:30;1.58;;;1.00;;
16393;SDS011;8306;51.128;4.476;2022-07-06T08:44:58;1.85;;;0.93;;
16393;SDS011;8306;51.128;4.476;2022-07-06T08:47:22;0.95;;;0.80;;
16393;SDS011;8306;51.128;4.476;2022-07-06T08:49:49;1.77;;;0.90;;
16393;SDS011;8306;51.128;4.476;2022-07-06T08:52:15;2.28;;;1.00;;
16393;SDS011;8306;51.128;4.476;2022-07-06T08:54:42;1.67;;;0.95;;
16393;SDS011;8306;51.128;4.476;2022-07-06T08:57:08;1.48;;;0.88;;
16393;SDS011;8306;51.128;4.476;2022-07-06T08:59:35;1.60;;;0.88;;
16393;SDS011;8306;51.128;4.476;2022-07-06T09:02:02;1.20;;;0.82;;
16393;SDS011;8306;51.128;4.476;2022-07-06T09:04:28;1.50;;;0.95;;
16393;SDS011;8306;51.128;4.476;2022-07-06T09:06:54;1.83;;;0.98;;
16393;SDS011;8306;51.128;4.476;2022-07-06T09:09:21;1.20;;;0.80;;
16393;SDS011;8306;51.128;4.476;2022-07-06T09:11:47;2.53;;;1.10;;
16393;SDS011;8306;51.128;4.476;2022-07-06T09:14:14;1.70;;;1.00;;
16393;SDS011;8306;51.128;4.476;2022-07-06T09:16:40;1.77;;;0.80;;
16393;SDS011;8306;51.128;4.476;2022-07-06T09:19:07;2.20;;;1.03;;
16393;SDS011;8306;51.128;4.476;2022-07-06T09:21:33;2.27;;;1.00;;
16393;SDS011;8306;51.128;4.476;2022-07-06T09:24:01;1.60;;;1.07;;
16393;SDS011;8306;51.128;4.476;2022-07-06T09:26:26;2.00;;;1.07;;
16393;SDS011;8306;51.128;4.476;2022-07-06T09:28:54;1.93;;;0.97;;
16393;SDS011;8306;51.128;4.476;2022-07-06T09:31:19;1.10;;;0.90;;
16393;SDS011;8306;51.128;4.476;2022-07-06T09:33:55;2.23;;;1.40;;
16393;SDS011;8306;51.128;4.476;2022-07-06T09:41:48;2.23;;;1.03;;
16393;SDS011;8306;51.128;4.476;2022-07-06T09:44:18;1.77;;;1.07;;
16393;SDS011;8306;51.128;4.476;2022-07-06T09:46:40;1.83;;;1.30;;
16393;SDS011;8306;51.128;4.476;2022-07-06T09:49:06;2.13;;;1.47;;
16393;SDS011;8306;51.128;4.476;2022-07-06T09:51:35;1.63;;;1.10;;
16393;SDS011;8306;51.128;4.476;2022-07-06T09:54:05;2.17;;;1.20;;
16393;SDS011;8306;51.128;4.476;2022-07-06T09:56:37;2.58;;;1.20;;
16393;SDS011;8306;51.128;4.476;2022-07-06T09:59:12;4.87;;;1.63;;
16393;SDS011;8306;51.128;4.476;2022-07-06T10:01:38;2.78;;;1.30;;
16393;SDS011;8306;51.128;4.476;2022-07-06T10:04:05;2.92;;;1.58;;
16393;SDS011;8306;51.128;4.476;2022-07-06T10:06:34;1.67;;;1.17;;
16393;SDS011;8306;51.128;4.476;2022-07-06T10:09:01;2.80;;;1.50;;
16393;SDS011;8306;51.128;4.476;2022-07-06T10:11:28;1.80;;;1.37;;
16393;SDS011;8306;51.128;4.476;2022-07-06T10:13:54;2.73;;;1.70;;
16393;SDS011;8306;51.128;4.476;2022-07-06T10:16:23;2.47;;;1.48;;
16393;SDS011;8306;51.128;4.476;2022-07-06T10:18:50;1.95;;;1.52;;
16393;SDS011;8306;51.128;4.476;2022-07-06T10:21:16;1.55;;;1.10;;
16393;SDS011;8306;51.128;4.476;2022-07-06T10:23:42;3.15;;;1.48;;
16393;SDS011;8306;51.128;4.476;2022-07-06T10:26:09;2.25;;;1.70;;
16393;SDS011;8306;51.128;4.476;2022-07-06T10:28:35;1.87;;;1.52;;
16393;SDS011;8306;51.128;4.476;2022-07-06T10:31:02;3.42;;;1.62;;
16393;SDS011;8306;51.128;4.476;2022-07-06T10:33:28;1.98;;;1.35;;
16393;SDS011;8306;51.128;4.476;2022-07-06T10:35:54;2.90;;;1.95;;
16393;SDS011;8306;51.128;4.476;2022-07-06T10:38:21;2.10;;;1.20;;
16393;SDS011;8306;51.128;4.476;2022-07-06T10:40:47;2.67;;;1.48;;
16393;SDS011;8306;51.128;4.476;2022-07-06T10:43:32;3.22;;;1.50;;
16393;SDS011;8306;51.128;4.476;2022-07-06T10:45:58;2.67;;;1.30;;
16393;SDS011;8306;51.128;4.476;2022-07-06T10:48:24;1.80;;;1.45;;
16393;SDS011;8306;51.128;4.476;2022-07-06T10:50:54;3.60;;;1.55;;
16393;SDS011;8306;51.128;4.476;2022-07-06T10:53:21;1.65;;;1.42;;
16393;SDS011;8306;51.128;4.476;2022-07-06T10:55:51;2.22;;;1.17;;
16393;SDS011;8306;51.128;4.476;2022-07-06T10:59:03;3.08;;;1.37;;
16393;SDS011;8306;51.128;4.476;2022-07-06T11:01:01;1.40;;;1.02;;
16393;SDS011;8306;51.128;4.476;2022-07-06T11:03:31;2.35;;;1.30;;
16393;SDS011;8306;51.128;4.476;2022-07-06T11:06:00;2.22;;;1.50;;
16393;SDS011;8306;51.128;4.476;2022-07-06T11:08:49;2.70;;;1.50;;
16393;SDS011;8306;51.128;4.476;2022-07-06T11:11:24;1.67;;;1.40;;
16393;SDS011;8306;51.128;4.476;2022-07-06T11:13:51;5.65;;;1.55;;
16393;SDS011;8306;51.128;4.476;2022-07-06T11:16:23;2.62;;;1.62;;
16393;SDS011;8306;51.128;4.476;2022-07-06T11:18:48;2.60;;;1.40;;
16393;SDS011;8306;51.128;4.476;2022-07-06T11:21:31;2.25;;;1.92;;
16393;SDS011;8306;51.128;4.476;2022-07-06T11:23:47;4.15;;;3.85;;
16393;SDS011;8306;51.128;4.476;2022-07-06T11:26:13;1.87;;;1.25;;
16393;SDS011;8306;51.128;4.476;2022-07-06T11:28:40;2.75;;;1.10;;
16393;SDS011;8306;51.128;4.476;2022-07-06T11:31:06;1.92;;;1.10;;
16393;SDS011;8306;51.128;4.476;2022-07-06T11:33:32;1.48;;;1.08;;
16393;SDS011;8306;51.128;4.476;2022-07-06T11:36:17;3.17;;;1.42;;
16393;SDS011;8306;51.128;4.476;2022-07-06T11:38:44;1.75;;;1.17;;
16393;SDS011;8306;51.128;4.476;2022-07-06T11:41:10;1.30;;;1.00;;
16393;SDS011;8306;51.128;4.476;2022-07-06T11:43:36;1.98;;;1.00;;
16393;SDS011;8306;51.128;4.476;2022-07-06T11:46:03;4.12;;;1.37;;
16393;SDS011;8306;51.128;4.476;2022-07-06T11:48:29;1.92;;;1.20;;
16393;SDS011;8306;51.128;4.476;2022-07-06T11:50:59;1.98;;;1.10;;
16393;SDS011;8306;51.128;4.476;2022-07-06T11:53:25;1.10;;;1.00;;
16393;SDS011;8306;51.128;4.476;2022-07-06T11:55:52;1.10;;;1.00;;
16393;SDS011;8306;51.128;4.476;2022-07-06T11:58:20;4.37;;;1.30;;
16393;SDS011;8306;51.128;4.476;2022-07-06T12:00:45;2.93;;;1.53;;
16393;SDS011;8306;51.128;4.476;2022-07-06T12:03:11;3.27;;;1.30;;
16393;SDS011;8306;51.128;4.476;2022-07-06T12:05:38;1.10;;;1.00;;
16393;SDS011;8306;51.128;4.476;2022-07-06T12:08:07;2.80;;;1.40;;
16393;SDS011;8306;51.128;4.476;2022-07-06T12:10:33;2.70;;;1.27;;
16393;SDS011;8306;51.128;4.476;2022-07-06T12:13:03;1.93;;;1.13;;
16393;SDS011;8306;51.128;4.476;2022-07-06T12:15:29;2.95;;;1.42;;
16393;SDS011;8306;51.128;4.476;2022-07-06T12:17:56;2.90;;;1.37;;
16393;SDS011;8306;51.128;4.476;2022-07-06T12:20:22;2.43;;;1.30;;
16393;SDS011;8306;51.128;4.476;2022-07-06T12:22:49;2.80;;;1.73;;
16393;SDS011;8306;51.128;4.476;2022-07-06T12:25:34;4.23;;;2.00;;
16393;SDS011;8306;51.128;4.476;2022-07-06T12:28:00;2.80;;;1.60;;
16393;SDS011;8306;51.128;4.476;2022-07-06T12:30:26;2.57;;;2.00;;
16393;SDS011;8306;51.128;4.476;2022-07-06T12:33:12;3.60;;;2.10;;
16393;SDS011;8306;51.128;4.476;2022-07-06T12:35:37;4.17;;;2.00;;
16393;SDS011;8306;51.128;4.476;2022-07-06T12:38:04;2.50;;;1.47;;
16393;SDS011;8306;51.128;4.476;2022-07-06T12:40:30;2.13;;;1.97;;
16393;SDS011;8306;51.128;4.476;2022-07-06T12:42:57;3.43;;;2.30;;
16393;SDS011;8306;51.128;4.476;2022-07-06T12:45:30;2.07;;;1.40;;
16393;SDS011;8306;51.128;4.476;2022-07-06T12:47:59;3.93;;;1.97;;
16393;SDS011;8306;51.128;4.476;2022-07-06T12:50:31;3.63;;;1.80;;
16393;SDS011;8306;51.128;4.476;2022-07-06T12:53:00;2.90;;;2.33;;
16393;SDS011;8306;51.128;4.476;2022-07-06T12:55:27;2.63;;;1.60;;
16393;SDS011;8306;51.128;4.476;2022-07-06T12:57:56;4.30;;;1.90;;
16393;SDS011;8306;51.128;4.476;2022-07-06T13:00:22;3.03;;;1.70;;
16393;SDS011;8306;51.128;4.476;2022-07-06T13:02:49;3.00;;;1.90;;
16393;SDS011;8306;51.128;4.476;2022-07-06T13:05:15;4.13;;;2.43;;
16393;SDS011;8306;51.128;4.476;2022-07-06T13:07:45;2.27;;;1.63;;
16393;SDS011;8306;51.128;4.476;2022-07-06T13:10:12;5.27;;;1.90;;
16393;SDS011;8306;51.128;4.476;2022-07-06T13:12:38;3.53;;;1.97;;
16393;SDS011;8306;51.128;4.476;2022-07-06T13:15:08;3.73;;;2.30;;
16393;SDS011;8306;51.128;4.476;2022-07-06T13:17:33;3.60;;;2.50;;
16393;SDS011;8306;51.128;4.476;2022-07-06T13:20:00;6.50;;;2.90;;
16393;SDS011;8306;51.128;4.476;2022-07-06T13:22:26;3.60;;;2.70;;
16393;SDS011;8306;51.128;4.476;2022-07-06T13:24:53;3.50;;;3.07;;
16393;SDS011;8306;51.128;4.476;2022-07-06T13:27:19;4.13;;;3.73;;
16393;SDS011;8306;51.128;4.476;2022-07-06T13:29:46;4.60;;;4.10;;
16393;SDS011;8306;51.128;4.476;2022-07-06T13:32:12;3.97;;;3.20;;
16393;SDS011;8306;51.128;4.476;2022-07-06T13:34:39;3.90;;;2.97;;
16393;SDS011;8306;51.128;4.476;2022-07-06T13:37:05;4.70;;;3.53;;
16393;SDS011;8306;51.128;4.476;2022-07-06T13:39:32;4.97;;;4.57;;
16393;SDS011;8306;51.128;4.476;2022-07-06T13:41:58;3.90;;;3.40;;
16393;SDS011;8306;51.128;4.476;2022-07-06T13:44:25;4.43;;;3.63;;
16393;SDS011;8306;51.128;4.476;2022-07-06T13:46:51;4.33;;;3.40;;
16393;SDS011;8306;51.128;4.476;2022-07-06T13:49:18;3.63;;;3.27;;
16393;SDS011;8306;51.128;4.476;2022-07-06T13:51:44;3.73;;;3.00;;
16393;SDS011;8306;51.128;4.476;2022-07-06T13:54:11;4.03;;;2.80;;
16393;SDS011;8306;51.128;4.476;2022-07-06T13:56:38;3.80;;;2.77;;
16393;SDS011;8306;51.128;4.476;2022-07-06T13:59:06;3.43;;;2.30;;
16393;SDS011;8306;51.128;4.476;2022-07-06T14:01:30;4.23;;;2.53;;
16393;SDS011;8306;51.128;4.476;2022-07-06T14:03:57;3.50;;;2.70;;
16393;SDS011;8306;51.128;4.476;2022-07-06T14:06:23;2.00;;;1.77;;
16393;SDS011;8306;51.128;4.476;2022-07-06T14:08:50;2.80;;;2.50;;
16393;SDS011;8306;51.128;4.476;2022-07-06T14:11:16;3.17;;;2.10;;
16393;SDS011;8306;51.128;4.476;2022-07-06T14:13:43;3.57;;;2.73;;
16393;SDS011;8306;51.128;4.476;2022-07-06T14:18:32;4.07;;;2.77;;
16393;SDS011;8306;51.128;4.476;2022-07-06T14:20:59;2.60;;;2.40;;
16393;SDS011;8306;51.128;4.476;2022-07-06T14:23:25;4.23;;;2.47;;
16393;SDS011;8306;51.128;4.476;2022-07-06T14:25:52;2.43;;;2.03;;
16393;SDS011;8306;51.128;4.476;2022-07-06T14:28:18;3.17;;;2.77;;
16393;SDS011;8306;51.128;4.476;2022-07-06T14:30:45;3.53;;;3.10;;
16393;SDS011;8306;51.128;4.476;2022-07-06T14:33:12;3.30;;;2.73;;
16393;SDS011;8306;51.128;4.476;2022-07-06T14:35:39;3.40;;;1.93;;
16393;SDS011;8306;51.128;4.476;2022-07-06T14:38:04;4.53;;;2.33;;
16393;SDS011;8306;51.128;4.476;2022-07-06T14:40:31;3.03;;;2.23;;
16393;SDS011;8306;51.128;4.476;2022-07-06T14:42:58;2.70;;;1.90;;
16393;SDS011;8306;51.128;4.476;2022-07-06T14:45:23;2.53;;;1.80;;
16393;SDS011;8306;51.128;4.476;2022-07-06T14:47:50;2.23;;;1.83;;
16393;SDS011;8306;51.128;4.476;2022-07-06T14:50:16;2.67;;;1.83;;
16393;SDS011;8306;51.128;4.476;2022-07-06T14:52:43;2.53;;;1.50;;
16393;SDS011;8306;51.128;4.476;2022-07-06T14:55:09;3.07;;;1.93;;
16393;SDS011;8306;51.128;4.476;2022-07-06T14:57:36;2.00;;;1.77;;
16393;SDS011;8306;51.128;4.476;2022-07-06T15:00:03;4.33;;;1.90;;
16393;SDS011;8306;51.128;4.476;2022-07-06T15:02:29;2.47;;;2.00;;
16393;SDS011;8306;51.128;4.476;2022-07-06T15:04:55;4.10;;;1.60;;
16393;SDS011;8306;51.128;4.476;2022-07-06T15:07:22;3.70;;;1.70;;
16393;SDS011;8306;51.128;4.476;2022-07-06T15:09:48;2.93;;;1.80;;